createdAt,value
2019-06-07T00:00:29.610Z,17.80
2019-06-07T00:02:41.420Z,17.70
2019-06-07T00:05:12.723Z,17.70
2019-06-07T00:07:40.639Z,17.70
2019-06-07T00:10:14.448Z,17.70
2019-06-07T00:12:40.098Z,17.70
2019-06-07T00:15:12.899Z,17.50
2019-06-07T00:17:39.261Z,17.50
2019-06-07T00:20:13.083Z,17.50
2019-06-07T00:22:39.015Z,17.50
2019-06-07T00:25:12.084Z,17.40
2019-06-07T00:27:38.482Z,17.40
2019-06-07T00:30:32.634Z,17.30
2019-06-07T00:32:39.714Z,17.30
2019-06-07T00:35:11.655Z,17.30
2019-06-07T00:37:40.450Z,17.30
2019-06-07T00:40:17.347Z,17.20
2019-06-07T00:42:39.803Z,17.20
2019-06-07T00:45:11.028Z,17.20
2019-06-07T00:47:39.459Z,17.20
2019-06-07T00:50:08.759Z,17.20
2019-06-07T00:55:09.290Z,17.20
2019-06-07T00:57:38.604Z,17.00
2019-06-07T01:00:09.441Z,16.90
2019-06-07T01:02:38.149Z,16.80
2019-06-07T01:05:08.651Z,16.70
2019-06-07T01:07:37.372Z,16.70
2019-06-07T01:10:08.739Z,16.70
2019-06-07T01:12:37.448Z,16.60
2019-06-07T01:15:07.854Z,16.60
2019-06-07T01:17:50.107Z,16.60
2019-06-07T01:20:09.214Z,16.50
2019-06-07T01:22:57.195Z,16.60
2019-06-07T01:25:26.442Z,16.70
2019-06-07T01:27:55.807Z,16.60
2019-06-07T01:30:26.682Z,16.60
2019-06-07T01:32:55.623Z,16.50
2019-06-07T01:35:25.631Z,16.60
2019-06-07T01:37:54.435Z,16.50
2019-06-07T01:40:27.762Z,16.70
2019-06-07T01:42:53.772Z,16.60
2019-06-07T01:45:23.656Z,16.70
2019-06-07T01:47:52.500Z,16.60
2019-06-07T01:50:23.366Z,16.70
2019-06-07T01:52:51.562Z,16.60
2019-06-07T01:55:23.588Z,16.60
2019-06-07T01:57:50.639Z,16.50
2019-06-07T02:00:22.122Z,16.50
2019-06-07T02:02:51.124Z,16.60
2019-06-07T02:05:21.570Z,16.60
2019-06-07T02:07:50.251Z,16.60
2019-06-07T02:10:19.675Z,16.50
2019-06-07T02:12:49.520Z,16.50
2019-06-07T02:15:21.683Z,16.50
2019-06-07T02:17:49.263Z,16.50
2019-06-07T02:20:20.188Z,16.60
2019-06-07T02:22:48.620Z,16.60
2019-06-07T02:25:36.857Z,16.50
2019-06-07T02:27:47.779Z,16.70
2019-06-07T02:30:40.257Z,16.60
2019-06-07T02:32:47.147Z,16.70
2019-06-07T02:35:16.063Z,16.70
2019-06-07T02:37:44.709Z,16.70
2019-06-07T02:40:13.932Z,16.70
2019-06-07T02:42:43.061Z,16.70
2019-06-07T02:45:12.193Z,16.70
2019-06-07T02:47:42.571Z,16.60
2019-06-07T02:50:11.979Z,16.70
2019-06-07T02:52:41.720Z,16.70
2019-06-07T02:55:11.769Z,16.70
2019-06-07T02:57:42.311Z,16.70
2019-06-07T03:00:51.384Z,16.70
2019-06-07T03:02:43.615Z,16.80
2019-06-07T03:05:12.620Z,16.80
2019-06-07T03:07:44.999Z,16.80
2019-06-07T03:10:13.376Z,16.80
2019-06-07T03:12:45.210Z,16.80
2019-06-07T03:15:31.961Z,16.80
2019-06-07T03:17:55.253Z,16.90
2019-06-07T03:20:31.196Z,16.90
2019-06-07T03:23:01.199Z,16.90
2019-06-07T03:25:35.745Z,17.00
2019-06-07T03:28:03.527Z,17.10
2019-06-07T03:30:46.211Z,17.10
2019-06-07T03:33:02.594Z,17.10
2019-06-07T03:35:34.285Z,17.10
2019-06-07T03:38:02.200Z,17.20
2019-06-07T03:40:31.694Z,17.10
2019-06-07T03:43:01.060Z,17.20
2019-06-07T03:45:30.764Z,17.30
2019-06-07T03:48:00.122Z,17.20
2019-06-07T03:50:31.878Z,17.30
2019-06-07T03:52:59.194Z,17.40
2019-06-07T03:55:29.844Z,17.40
2019-06-07T03:58:30.748Z,17.40
2019-06-07T04:00:31.187Z,17.40
2019-06-07T04:02:58.964Z,17.40
2019-06-07T04:05:28.742Z,17.60
2019-06-07T04:07:58.026Z,17.70
2019-06-07T04:10:45.755Z,17.70
2019-06-07T04:12:57.079Z,17.60
2019-06-07T04:15:25.718Z,17.80
2019-06-07T04:18:02.049Z,17.90
2019-06-07T04:20:24.991Z,18.00
2019-06-07T04:22:53.688Z,18.10
2019-06-07T04:25:22.400Z,18.20
2019-06-07T04:27:51.519Z,18.20
2019-06-07T04:30:23.252Z,18.40
2019-06-07T04:32:51.971Z,18.40
2019-06-07T04:35:20.621Z,18.50
2019-06-07T04:37:49.730Z,18.50
2019-06-07T04:40:18.435Z,18.60
2019-06-07T04:42:47.340Z,18.80
2019-06-07T04:45:33.263Z,19.10
2019-06-07T04:47:48.199Z,19.10
2019-06-07T04:50:16.923Z,19.40
2019-06-07T04:52:45.899Z,19.40
2019-06-07T04:55:14.662Z,19.50
2019-06-07T04:57:43.487Z,19.80
2019-06-07T05:00:46.111Z,19.60
2019-06-07T05:02:43.572Z,19.50
2019-06-07T05:05:12.836Z,19.60
2019-06-07T05:07:46.061Z,19.60
2019-06-07T05:10:12.113Z,19.70
2019-06-07T05:12:44.310Z,19.90
2019-06-07T05:15:11.260Z,20.20
2019-06-07T05:17:43.290Z,20.50
2019-06-07T05:20:10.690Z,20.60
2019-06-07T05:22:44.443Z,20.70
2019-06-07T05:25:10.112Z,20.90
2019-06-07T05:27:42.465Z,21.50
2019-06-07T05:30:49.885Z,22.30
2019-06-07T05:32:45.407Z,22.40
2019-06-07T05:35:13.705Z,22.30
2019-06-07T05:37:45.886Z,22.00
2019-06-07T05:40:14.220Z,22.10
2019-06-07T05:42:46.430Z,22.50
2019-06-07T05:45:14.832Z,22.80
2019-06-07T05:47:50.379Z,23.70
2019-06-07T05:50:38.558Z,23.90
2019-06-07T05:52:47.405Z,23.70
2019-06-07T05:55:14.791Z,23.60
2019-06-07T05:57:49.164Z,23.60
2019-06-07T06:00:13.872Z,24.10
2019-06-07T06:03:00.127Z,24.10
2019-06-07T06:05:32.509Z,24.10
2019-06-07T06:07:49.975Z,24.70
2019-06-07T06:10:13.726Z,25.30
2019-06-07T06:12:49.885Z,24.90
2019-06-07T06:15:12.995Z,25.00
2019-06-07T06:17:46.071Z,25.30
2019-06-07T06:20:12.348Z,25.40
2019-06-07T06:22:44.766Z,25.20
2019-06-07T06:28:05.876Z,24.80
2019-06-07T06:30:13.673Z,25.90
2019-06-07T06:32:50.764Z,26.30
2019-06-07T06:35:12.836Z,27.00
2019-06-07T06:37:44.506Z,26.50
2019-06-07T06:40:12.456Z,26.80
2019-06-07T06:42:42.263Z,26.50
2019-06-07T06:45:13.171Z,27.20
2019-06-07T06:47:43.304Z,26.90
2019-06-07T06:50:13.235Z,27.00
2019-06-07T06:52:44.030Z,27.80
2019-06-07T06:55:12.488Z,27.80
2019-06-07T06:57:41.776Z,27.80
2019-06-07T07:00:15.440Z,27.70
2019-06-07T07:03:35.128Z,28.10
2019-06-07T07:05:16.134Z,27.10
2019-06-07T07:07:46.003Z,27.70
2019-06-07T07:10:18.324Z,30.40
2019-06-07T07:12:47.967Z,32.40
2019-06-07T07:15:17.859Z,33.40
2019-06-07T07:17:56.646Z,34.10
2019-06-07T07:20:16.847Z,34.50
2019-06-07T07:22:47.905Z,34.40
2019-06-07T07:25:15.919Z,35.20
2019-06-07T07:27:44.797Z,35.90
2019-06-07T07:30:36.139Z,36.20
2019-06-07T07:32:48.464Z,36.40
2019-06-07T07:35:17.060Z,37.00
2019-06-07T07:37:55.076Z,36.90
2019-06-07T07:40:56.338Z,36.10
2019-06-07T07:42:52.710Z,37.50
2019-06-07T07:45:19.961Z,38.10
2019-06-07T07:48:03.205Z,36.50
2019-06-07T07:50:19.000Z,38.20
2019-06-07T07:52:49.131Z,38.50
2019-06-07T07:55:18.081Z,37.60
2019-06-07T07:57:49.441Z,39.10
2019-06-07T08:00:49.575Z,38.80
2019-06-07T08:02:48.852Z,38.70
2019-06-07T08:05:25.640Z,39.40
2019-06-07T08:07:53.039Z,37.70
2019-06-07T08:10:19.708Z,37.40
2019-06-07T08:13:08.758Z,37.00
2019-06-07T08:15:18.888Z,38.50
2019-06-07T08:17:50.492Z,39.60
2019-06-07T08:20:17.927Z,38.10
2019-06-07T08:22:47.668Z,37.60
2019-06-07T08:25:16.740Z,37.50
2019-06-07T08:27:45.443Z,37.90
2019-06-07T08:30:47.178Z,37.70
2019-06-07T08:32:45.895Z,38.30
2019-06-07T08:36:02.437Z,38.30
2019-06-07T08:40:16.208Z,37.40
2019-06-07T08:43:03.319Z,38.50
2019-06-07T08:45:16.167Z,36.90
2019-06-07T08:47:45.260Z,38.00
2019-06-07T08:50:14.871Z,38.10
2019-06-07T08:52:45.381Z,36.90
2019-06-07T08:55:14.617Z,37.20
2019-06-07T08:57:45.547Z,38.30
2019-06-07T09:00:43.171Z,38.80
2019-06-07T09:02:45.023Z,37.20
2019-06-07T09:05:15.903Z,36.30
2019-06-07T09:07:44.672Z,36.90
2019-06-07T09:10:15.196Z,35.60
2019-06-07T09:12:45.271Z,34.70
2019-06-07T09:15:22.906Z,36.50
2019-06-07T09:20:48.647Z,36.40
2019-06-07T09:23:18.054Z,35.20
2019-06-07T09:25:57.387Z,35.30
2019-06-07T09:28:20.124Z,35.80
2019-06-07T09:30:48.973Z,36.90
2019-06-07T09:33:17.676Z,36.90
2019-06-07T09:35:46.376Z,34.10
2019-06-07T09:38:24.961Z,31.90
2019-06-07T09:40:45.528Z,31.20
2019-06-07T09:45:44.751Z,29.90
2019-06-07T09:48:23.995Z,29.50
2019-06-07T09:50:43.815Z,30.10
2019-06-07T09:53:21.782Z,31.30
2019-06-07T09:55:42.891Z,30.80
2019-06-07T09:58:49.755Z,31.90
2019-06-07T10:00:42.807Z,33.30
2019-06-07T10:03:20.789Z,34.00
2019-06-07T10:05:42.173Z,33.70
2019-06-07T10:08:54.588Z,33.20
2019-06-07T10:10:42.990Z,33.20
2019-06-07T10:13:11.607Z,32.20
2019-06-07T10:15:40.605Z,32.00
2019-06-07T10:18:09.402Z,31.10
2019-06-07T10:20:38.122Z,30.50
2019-06-07T10:23:08.068Z,30.80
2019-06-07T10:25:37.102Z,30.80
2019-06-07T10:28:06.347Z,30.60
2019-06-07T10:30:35.294Z,30.60
2019-06-07T10:33:06.931Z,30.70
2019-06-07T10:35:35.776Z,30.40
2019-06-07T10:38:06.645Z,30.10
2019-06-07T10:40:35.427Z,29.70
2019-06-07T10:43:05.015Z,30.60
2019-06-07T10:45:34.301Z,31.90
2019-06-07T10:48:03.582Z,32.60
2019-06-07T10:50:32.476Z,32.30
2019-06-07T10:53:02.342Z,31.90
2019-06-07T10:55:31.235Z,31.50
2019-06-07T10:57:59.945Z,31.00
2019-06-07T11:00:29.746Z,30.40
2019-06-07T11:02:58.523Z,29.90
2019-06-07T11:05:27.228Z,29.50
2019-06-07T11:07:55.936Z,28.20
2019-06-07T11:10:26.290Z,27.30
2019-06-07T11:12:54.919Z,26.10
2019-06-07T11:15:23.628Z,25.50
2019-06-07T11:17:52.338Z,24.60
2019-06-07T11:20:21.840Z,24.30
2019-06-07T11:36:28.496Z,24.10
2019-06-07T11:38:57.271Z,22.10
2019-06-07T11:41:25.992Z,22.40
2019-06-07T11:43:54.731Z,22.90
2019-06-07T11:46:23.479Z,23.00
2019-06-07T11:48:52.677Z,23.00
2019-06-07T11:51:21.474Z,23.00
2019-06-07T11:53:50.246Z,23.00
2019-06-07T11:56:18.947Z,22.80
2019-06-07T11:58:47.651Z,22.60
2019-06-07T12:01:17.161Z,22.30
2019-06-07T12:03:46.844Z,22.20
2019-06-07T12:06:16.415Z,22.00
2019-06-07T12:08:45.183Z,21.70
2019-06-07T12:11:14.376Z,21.60
2019-06-07T12:13:43.286Z,21.50
2019-06-07T12:16:13.291Z,21.50
2019-06-07T12:18:42.097Z,21.60
2019-06-07T12:21:11.512Z,21.50
2019-06-07T12:23:40.303Z,21.30
2019-06-07T12:26:10.215Z,21.30
2019-06-07T12:28:39.012Z,21.30
2019-06-07T12:31:07.708Z,21.30
2019-06-07T12:33:36.423Z,21.10
2019-06-07T12:36:05.124Z,20.70
2019-06-07T12:38:33.835Z,20.20
2019-06-07T12:41:02.539Z,19.50
2019-06-07T12:43:31.176Z,19.00
2019-06-07T12:45:59.885Z,18.70
2019-06-07T12:48:28.583Z,18.70
2019-06-07T12:50:57.324Z,18.70
2019-06-07T12:53:28.061Z,18.70
2019-06-07T12:55:59.891Z,18.60
2019-06-07T12:58:34.718Z,18.40
2019-06-07T13:00:59.648Z,18.30
2019-06-07T13:03:27.439Z,18.10
2019-06-07T13:05:56.220Z,18.00
2019-06-07T13:08:24.923Z,17.90
2019-06-07T13:10:53.708Z,17.80
2019-06-07T13:13:22.801Z,17.70
2019-06-07T13:15:52.851Z,17.70
2019-06-07T13:18:23.123Z,17.60
2019-06-07T13:20:55.197Z,17.60
2019-06-07T13:23:22.659Z,17.50
2019-06-07T13:25:51.679Z,17.40
2019-06-07T13:28:20.780Z,17.30
2019-06-07T13:30:49.651Z,17.20
2019-06-07T13:33:19.008Z,17.10
2019-06-07T13:35:47.736Z,17.10
2019-06-07T13:38:25.804Z,17.10
2019-06-07T13:40:55.577Z,17.10
2019-06-07T13:43:26.052Z,17.20
2019-06-07T13:45:54.755Z,17.20
2019-06-07T13:48:23.477Z,17.20
2019-06-07T13:50:52.789Z,17.20
2019-06-07T13:53:22.588Z,17.20
2019-06-07T13:55:51.396Z,17.30
2019-06-07T13:58:21.288Z,17.50
2019-06-07T14:00:50.453Z,17.70
2019-06-07T14:03:22.492Z,17.90
2019-06-07T14:05:49.543Z,18.20
2019-06-07T14:08:19.036Z,18.40
2019-06-07T14:10:47.759Z,18.60
2019-06-07T14:13:16.467Z,18.80
2019-06-07T14:15:45.171Z,18.80
2019-06-07T14:18:13.872Z,18.80
2019-06-07T14:20:42.579Z,18.80
2019-06-07T14:23:11.283Z,18.70
2019-06-07T14:25:39.991Z,18.90
2019-06-07T14:28:11.395Z,19.00
2019-06-07T14:30:39.135Z,18.90
2019-06-07T14:33:07.831Z,19.10
2019-06-07T14:35:37.793Z,19.30
2019-06-07T14:38:06.489Z,19.40
2019-06-07T14:40:35.199Z,19.40
2019-06-07T14:43:03.896Z,19.60
2019-06-07T14:45:33.079Z,19.80
2019-06-07T14:48:02.984Z,19.80
2019-06-07T14:50:32.306Z,19.80
2019-06-07T14:53:01.019Z,19.90
2019-06-07T14:55:31.146Z,20.00
2019-06-07T14:57:59.937Z,20.20
2019-06-07T15:00:42.844Z,20.10
2019-06-07T15:03:11.540Z,20.10
2019-06-07T15:05:40.639Z,19.90
2019-06-07T15:08:09.459Z,19.90
2019-06-07T15:10:39.315Z,19.70
2019-06-07T15:13:08.171Z,19.60
2019-06-07T15:15:36.868Z,19.60
2019-06-07T15:18:05.600Z,19.60
2019-06-07T15:20:34.311Z,19.70
2019-06-07T15:23:03.024Z,19.80
2019-06-07T15:25:31.724Z,20.00
2019-06-07T15:28:00.519Z,20.30
2019-06-07T15:30:29.584Z,20.40
2019-06-07T15:32:59.774Z,20.50
2019-06-07T15:35:30.132Z,20.60
2019-06-07T15:37:58.886Z,20.70
2019-06-07T15:40:28.923Z,20.90
2019-06-07T15:42:57.851Z,21.00
2019-06-07T15:45:26.555Z,21.20
2019-06-07T15:47:56.162Z,21.40
2019-06-07T15:50:28.612Z,21.50
2019-06-07T15:52:55.296Z,21.70
2019-06-07T15:55:23.940Z,21.80
2019-06-07T15:57:52.667Z,21.70
2019-06-07T16:00:21.549Z,21.70
2019-06-07T16:02:50.220Z,21.60
2019-06-07T16:05:19.096Z,21.70
2019-06-07T16:07:47.800Z,21.80
2019-06-07T16:10:17.720Z,22.00
2019-06-07T16:12:59.671Z,22.00
2019-06-07T16:15:17.173Z,21.90
2019-06-07T16:17:45.872Z,21.80
2019-06-07T16:20:15.178Z,21.80
2019-06-07T16:22:44.307Z,22.00
2019-06-07T16:25:13.803Z,22.00
2019-06-07T16:27:42.864Z,22.10
2019-06-07T16:30:13.023Z,22.00
2019-06-07T16:32:43.907Z,22.00
2019-06-07T16:35:14.590Z,21.90
2019-06-07T16:37:45.801Z,21.90
2019-06-07T16:40:15.194Z,21.90
2019-06-07T16:42:45.029Z,21.90
2019-06-07T16:45:14.811Z,21.80
2019-06-07T16:47:46.008Z,21.80
2019-06-07T16:50:14.427Z,21.70
2019-06-07T16:52:44.238Z,21.70
2019-06-07T16:55:16.372Z,21.60
2019-06-07T16:57:45.248Z,21.60
2019-06-07T17:00:15.184Z,21.80
2019-06-07T17:02:44.983Z,21.80
2019-06-07T17:05:15.264Z,21.70
2019-06-07T17:07:44.846Z,21.80
2019-06-07T17:10:15.003Z,21.80
2019-06-07T17:12:44.857Z,21.80
2019-06-07T17:15:14.818Z,21.80
2019-06-07T17:17:44.984Z,21.80
2019-06-07T17:20:14.832Z,21.60
2019-06-07T17:22:44.000Z,21.60
2019-06-07T17:25:14.420Z,21.50
2019-06-07T17:27:43.896Z,21.40
2019-06-07T17:30:13.335Z,21.40
2019-06-07T17:32:50.817Z,21.40
2019-06-07T17:35:12.603Z,21.30
2019-06-07T17:37:43.220Z,21.30
2019-06-07T17:40:12.342Z,21.20
2019-06-07T17:42:41.050Z,21.10
2019-06-07T17:45:12.158Z,21.00
2019-06-07T17:47:41.593Z,20.90
2019-06-07T17:50:11.063Z,20.90
2019-06-07T17:52:39.783Z,20.80
2019-06-07T17:55:09.671Z,20.80
2019-06-07T17:57:38.479Z,20.80
2019-06-07T18:00:27.559Z,20.80
2019-06-07T18:02:38.953Z,20.70
2019-06-07T18:05:08.647Z,20.70
2019-06-07T18:07:37.360Z,20.60
2019-06-07T18:10:07.159Z,20.60
2019-06-07T18:12:38.608Z,20.50
2019-06-07T18:15:11.501Z,20.50
2019-06-07T18:17:40.199Z,20.50
2019-06-07T18:20:10.920Z,20.40
2019-06-07T18:22:39.686Z,20.40
2019-06-07T18:25:08.987Z,20.40
2019-06-07T18:27:37.683Z,20.30
2019-06-07T18:30:11.636Z,20.30
2019-06-07T18:32:39.982Z,20.20
2019-06-07T18:35:08.891Z,20.10
2019-06-07T18:37:37.591Z,20.10
2019-06-07T18:40:07.407Z,20.10
2019-06-07T18:42:36.105Z,20.00
2019-06-07T18:45:06.819Z,19.90
2019-06-07T18:47:35.635Z,19.90
2019-06-07T18:50:06.054Z,19.80
2019-06-07T18:52:36.811Z,19.80
2019-06-07T18:55:09.743Z,19.70
2019-06-07T18:57:38.447Z,19.60
2019-06-07T19:00:15.935Z,19.60
2019-06-07T19:02:47.621Z,19.50
2019-06-07T19:05:16.919Z,19.40
2019-06-07T19:07:45.619Z,19.40
2019-06-07T19:10:15.987Z,19.30
2019-06-07T19:12:44.696Z,19.30
2019-06-07T19:15:15.972Z,19.20
2019-06-07T19:17:44.703Z,19.10
2019-06-07T19:20:14.394Z,19.00
2019-06-07T19:22:43.100Z,18.90
2019-06-07T19:25:12.468Z,18.80
2019-06-07T19:27:41.187Z,18.70
2019-06-07T19:30:11.276Z,18.60
2019-06-07T19:32:39.991Z,18.90
2019-06-07T19:35:09.191Z,18.90
2019-06-07T19:37:37.901Z,18.80
2019-06-07T19:40:07.200Z,18.70
2019-06-07T19:42:35.912Z,18.60
2019-06-07T19:45:29.090Z,18.40
2019-06-07T19:47:36.814Z,18.30
2019-06-07T19:50:09.109Z,18.20
2019-06-07T19:52:37.817Z,18.10
2019-06-07T19:55:09.882Z,17.90
2019-06-07T19:57:37.694Z,18.10
2019-06-07T20:00:14.041Z,18.20
2019-06-07T20:02:38.887Z,18.30
2019-06-07T20:05:10.528Z,18.20
2019-06-07T20:07:39.244Z,18.00
2019-06-07T20:10:08.454Z,17.90
2019-06-07T20:12:37.156Z,17.80
2019-06-07T20:15:27.175Z,17.70
2019-06-07T20:17:37.403Z,17.60
2019-06-07T20:20:09.593Z,17.50
2019-06-07T20:22:38.341Z,17.40
2019-06-07T20:25:07.359Z,17.60
2019-06-07T20:27:36.066Z,17.60
2019-06-07T20:30:11.908Z,17.50
2019-06-07T20:32:40.620Z,17.40
2019-06-07T20:35:09.633Z,17.50
2019-06-07T20:37:38.327Z,17.60
2019-06-07T20:40:22.864Z,17.50
2019-06-07T20:42:38.611Z,17.40
2019-06-07T20:45:08.305Z,17.20
2019-06-07T20:47:36.991Z,17.20
2019-06-07T20:50:09.024Z,17.10
2019-06-07T20:52:38.124Z,17.20
2019-06-07T20:55:26.600Z,17.20
2019-06-07T20:57:55.307Z,17.10
2019-06-07T21:00:26.512Z,17.00
2019-06-07T21:02:55.509Z,17.00
2019-06-07T21:05:24.495Z,17.10
2019-06-07T21:07:53.197Z,17.00
2019-06-07T21:10:21.912Z,16.90
2019-06-07T21:12:50.656Z,16.80
2019-06-07T21:15:19.347Z,16.80
2019-06-07T21:17:48.051Z,16.80
2019-06-07T21:20:16.756Z,16.80
2019-06-07T21:22:45.496Z,16.80
2019-06-07T21:25:14.236Z,16.80
2019-06-07T21:27:43.003Z,16.80
2019-06-07T21:30:12.215Z,16.80
2019-06-07T21:32:41.213Z,16.70
2019-06-07T21:35:10.462Z,16.60
2019-06-07T21:37:39.110Z,16.80
2019-06-07T21:40:10.196Z,16.90
2019-06-07T21:42:39.106Z,16.80
2019-06-07T21:45:09.906Z,16.80
2019-06-07T21:47:39.019Z,16.80
2019-06-07T21:50:10.584Z,16.70
2019-06-07T21:52:39.534Z,16.60
2019-06-07T21:55:09.253Z,16.50
2019-06-07T21:57:38.640Z,16.50
2019-06-07T22:00:14.677Z,16.50
2019-06-07T22:02:43.386Z,16.50
2019-06-07T22:05:12.191Z,16.50
2019-06-07T22:07:40.899Z,16.40
2019-06-07T22:10:10.071Z,16.40
2019-06-07T22:12:38.879Z,16.30
2019-06-07T22:15:30.330Z,16.30
2019-06-07T22:17:40.905Z,16.30
2019-06-07T22:20:10.814Z,16.30
2019-06-07T22:22:39.608Z,16.30
2019-06-07T22:25:09.181Z,16.40
2019-06-07T22:27:38.309Z,16.50
2019-06-07T22:30:08.724Z,16.70
2019-06-07T22:32:37.520Z,16.90
2019-06-07T22:35:09.022Z,16.80
2019-06-07T22:37:37.759Z,16.80
2019-06-07T22:40:08.572Z,16.80
2019-06-07T22:42:37.795Z,16.80
2019-06-07T22:45:10.894Z,16.80
2019-06-07T22:47:39.832Z,16.80
2019-06-07T22:50:10.718Z,16.70
2019-06-07T22:52:39.663Z,16.70
2019-06-07T22:55:10.169Z,16.70
2019-06-07T22:57:59.046Z,16.70
2019-06-07T23:03:10.659Z,16.60
2019-06-07T23:05:39.394Z,16.50
2019-06-07T23:08:08.780Z,16.50
2019-06-07T23:10:37.503Z,16.40
2019-06-07T23:13:06.203Z,16.30
2019-06-07T23:15:34.911Z,16.30
2019-06-07T23:18:03.707Z,16.20
2019-06-07T23:20:32.460Z,16.10
2019-06-07T23:23:01.169Z,16.00
2019-06-07T23:25:29.872Z,16.00
2019-06-07T23:27:58.591Z,15.90
2019-06-07T23:30:27.494Z,15.80
2019-06-07T23:32:56.203Z,15.80
2019-06-07T23:35:24.913Z,15.80
2019-06-07T23:37:53.627Z,15.80
2019-06-07T23:40:22.343Z,15.80
2019-06-07T23:42:51.062Z,15.70
2019-06-07T23:45:19.755Z,15.70
2019-06-07T23:47:48.472Z,15.80
2019-06-07T23:50:17.643Z,16.00
2019-06-07T23:52:46.375Z,15.90
2019-06-07T23:55:15.892Z,15.80
2019-06-07T23:58:03.867Z,15.70
